Aviation Digital Data Service (ADDS)

Output produced by METARs form (2037 UTC 21 July 2017)
found at http://www.aviationweather.gov/adds/metars/
 
TAF MHLC 211610Z 2118/2218 03012KT 9999 SCT024CB BKN080 TX31/2119Z TN23/2212Z 
     TEMPO 2121/2201 6000 -TSRA SCT024CB OVC070 
     BECMG 2201/2203 10005KT 9999 NSW SCT024 SCT080 
     BECMG 2210/2212 FEW028
       
TAF MHLM 211610Z 2118/2218 01008KT 9999 SCT025 BKN080 TX31/2120Z TN24/2212Z 
     PROB40 
     TEMPO 2120/2200 6000 -RA SCT025TCU OVC080 
     BECMG 2200/2202 VRB02KT 9999 NSW SCT024
       
TAF MHRO 211610Z 2118/2218 09012G25KT 9999 SCT020 BKN080 TX32/2120Z TN27/2212Z 
     BECMG 2202/2204 09015KT SCT022
       
TAF MHSC 211259Z 2113/2219 VRB06KT 9999 FEW015 BKN050 BKN120 QNH2996INS 
     BECMG 2120/2121 03012KT 9000 -SHRA VCTS SCT020 BKN050CB BKN120 QNH2996INS 
     TEMPO 2121/2202 03012G18KT 8000 -TSRA BKN020CB 
     BECMG 2202/2203 VRB06KT 9999 NSW FEW015 SCT030 QNH3004INS 
     BECMG 2215/2216 03009KT 9999 SCT050 QNH3000INS TX33/2121Z TN22/2113Z
       
TAF MHTG 211610Z 2118/2218 06010KT 7000 -RA SCT024 OVC080 TX25/2120Z TN19/2212Z 
     PROB40 
     TEMPO 2120/2200 5000 RA SCT024 SCT028TCU OVC080 
     BECMG 2200/2202 36005KT 8000 VCSH FEW006 SCT024 BKN080 
     BECMG 2215/2217 06010KT 9999 NSW SCT026 BKN080
       
TAF MHSC 211259Z 2113/2219 VRB06KT 9999 FEW015 BKN050 BKN120 QNH2996INS 
     BECMG 2120/2121 03012KT 9000 -SHRA VCTS SCT020 BKN050CB BKN120 QNH2996INS 
     TEMPO 2121/2202 03012G18KT 8000 -TSRA BKN020CB 
     BECMG 2202/2203 VRB06KT 9999 NSW FEW015 SCT030 QNH3004INS 
     BECMG 2215/2216 03009KT 9999 SCT050 QNH3000INS TX33/2121Z TN22/2113Z
       
TAF MHLC 211610Z 2118/2218 03012KT 9999 SCT024CB BKN080 TX31/2119Z TN23/2212Z 
     TEMPO 2121/2201 6000 -TSRA SCT024CB OVC070 
     BECMG 2201/2203 10005KT 9999 NSW SCT024 SCT080 
     BECMG 2210/2212 FEW028
       
TAF MHLM 211610Z 2118/2218 01008KT 9999 SCT025 BKN080 TX31/2120Z TN24/2212Z 
     PROB40 
     TEMPO 2120/2200 6000 -RA SCT025TCU OVC080 
     BECMG 2200/2202 VRB02KT 9999 NSW SCT024
       
TAF MHRO 211610Z 2118/2218 09012G25KT 9999 SCT020 BKN080 TX32/2120Z TN27/2212Z 
     BECMG 2202/2204 09015KT SCT022
       
TAF MHSC 211259Z 2113/2219 VRB06KT 9999 FEW015 BKN050 BKN120 QNH2996INS 
     BECMG 2120/2121 03012KT 9000 -SHRA VCTS SCT020 BKN050CB BKN120 QNH2996INS 
     TEMPO 2121/2202 03012G18KT 8000 -TSRA BKN020CB 
     BECMG 2202/2203 VRB06KT 9999 NSW FEW015 SCT030 QNH3004INS 
     BECMG 2215/2216 03009KT 9999 SCT050 QNH3000INS TX33/2121Z TN22/2113Z
       
TAF MHTG 211610Z 2118/2218 06010KT 7000 -RA SCT024 OVC080 TX25/2120Z TN19/2212Z 
     PROB40 
     TEMPO 2120/2200 5000 RA SCT024 SCT028TCU OVC080 
     BECMG 2200/2202 36005KT 8000 VCSH FEW006 SCT024 BKN080 
     BECMG 2215/2217 06010KT 9999 NSW SCT026 BKN080
       
TAF MHLC 211610Z 2118/2218 03012KT 9999 SCT024CB BKN080 TX31/2119Z TN23/2212Z 
     TEMPO 2121/2201 6000 -TSRA SCT024CB OVC070 
     BECMG 2201/2203 10005KT 9999 NSW SCT024 SCT080 
     BECMG 2210/2212 FEW028
       
TAF MHLM 211610Z 2118/2218 01008KT 9999 SCT025 BKN080 TX31/2120Z TN24/2212Z 
     PROB40 
     TEMPO 2120/2200 6000 -RA SCT025TCU OVC080 
     BECMG 2200/2202 VRB02KT 9999 NSW SCT024
       
TAF MHRO 211610Z 2118/2218 09012G25KT 9999 SCT020 BKN080 TX32/2120Z TN27/2212Z 
     BECMG 2202/2204 09015KT SCT022
       
TAF MHTG 211610Z 2118/2218 06010KT 7000 -RA SCT024 OVC080 TX25/2120Z TN19/2212Z 
     PROB40 
     TEMPO 2120/2200 5000 RA SCT024 SCT028TCU OVC080 
     BECMG 2200/2202 36005KT 8000 VCSH FEW006 SCT024 BKN080 
     BECMG 2215/2217 06010KT 9999 NSW SCT026 BKN080